createdAt,value
2023-04-28T00:02:19.063Z,16.80
2023-04-28T00:04:47.545Z,16.80
2023-04-28T00:07:14.783Z,16.70
2023-04-28T00:09:41.830Z,16.70
2023-04-28T00:12:08.904Z,16.70
2023-04-28T00:14:36.152Z,16.70
2023-04-28T00:17:03.470Z,16.60
2023-04-28T00:19:30.630Z,16.60
2023-04-28T00:21:57.636Z,16.60
2023-04-28T00:24:24.562Z,16.60
2023-04-28T00:26:52.367Z,16.60
2023-04-28T00:29:19.468Z,16.60
2023-04-28T00:31:46.477Z,16.60
2023-04-28T00:34:15.163Z,16.60
2023-04-28T00:36:42.723Z,16.60
2023-04-28T00:39:10.150Z,16.60
2023-04-28T00:41:37.496Z,16.60
2023-04-28T00:44:04.853Z,16.60
2023-04-28T00:46:33.403Z,16.60
2023-04-28T00:49:00.471Z,16.60
2023-04-28T00:51:29.189Z,16.60
2023-04-28T00:53:57.343Z,16.60
2023-04-28T00:56:27.482Z,16.70
2023-04-28T00:58:54.629Z,16.70
2023-04-28T01:01:28.527Z,16.70
2023-04-28T01:03:59.909Z,16.70
2023-04-28T01:06:29.377Z,16.70
2023-04-28T01:08:59.044Z,16.70
2023-04-28T01:11:26.036Z,16.70
2023-04-28T01:14:07.974Z,16.70
2023-04-28T01:16:39.245Z,16.80
2023-04-28T01:19:09.869Z,16.80
2023-04-28T01:21:39.563Z,16.70
2023-04-28T01:24:18.962Z,16.70
2023-04-28T01:26:46.369Z,16.70
2023-04-28T01:29:13.497Z,16.70
2023-04-28T01:31:41.991Z,16.70
2023-04-28T01:34:09.010Z,16.80
2023-04-28T01:36:37.807Z,16.80
2023-04-28T01:39:05.697Z,16.80
2023-04-28T01:41:34.649Z,16.80
2023-04-28T01:44:02.057Z,16.80
2023-04-28T01:46:29.019Z,16.70
2023-04-28T01:48:56.011Z,16.70
2023-04-28T01:51:22.946Z,16.70
2023-04-28T01:53:49.936Z,16.70
2023-04-28T01:56:16.936Z,16.60
2023-04-28T01:58:43.885Z,16.70
2023-04-28T02:01:13.205Z,16.70
2023-04-28T02:03:41.819Z,16.60
2023-04-28T02:21:26.402Z,16.40
2023-04-28T02:23:53.610Z,16.40
2023-04-28T02:26:20.546Z,16.40
2023-04-28T02:28:51.823Z,16.40
2023-04-28T02:31:18.789Z,16.40
2023-04-28T02:33:46.617Z,16.40
2023-04-28T02:36:13.761Z,16.30
2023-04-28T02:38:41.781Z,16.30
2023-04-28T02:41:09.441Z,16.20
2023-04-28T02:43:37.922Z,16.20
2023-04-28T02:46:05.683Z,16.20
2023-04-28T02:48:35.522Z,16.10
2023-04-28T02:51:03.010Z,16.10
2023-04-28T02:53:30.157Z,16.20
2023-04-28T02:55:57.199Z,16.30
2023-04-28T02:58:24.196Z,16.20
2023-04-28T03:00:51.166Z,16.30
2023-04-28T03:03:18.375Z,16.30
2023-04-28T03:05:46.165Z,16.30
2023-04-28T03:08:13.207Z,16.40
2023-04-28T03:10:40.200Z,16.50
2023-04-28T03:13:07.268Z,16.50
2023-04-28T03:15:34.850Z,16.40
2023-04-28T03:18:03.505Z,16.50
2023-04-28T03:20:30.741Z,16.60
2023-04-28T03:22:57.683Z,16.60
2023-04-28T03:25:24.769Z,16.60
2023-04-28T03:27:52.335Z,16.60
2023-04-28T03:30:19.341Z,16.70
2023-04-28T03:32:46.796Z,16.60
2023-04-28T03:35:14.257Z,16.60
2023-04-28T03:37:41.953Z,16.70
2023-04-28T03:40:09.729Z,16.70
2023-04-28T03:42:54.344Z,16.70
2023-04-28T03:45:29.067Z,16.70
2023-04-28T03:47:56.228Z,16.70
2023-04-28T03:50:25.345Z,16.70
2023-04-28T03:52:53.682Z,16.80
2023-04-28T03:55:20.642Z,16.80
2023-04-28T03:57:47.913Z,16.90
2023-04-28T04:00:15.040Z,16.90
2023-04-28T04:02:44.868Z,16.90
2023-04-28T04:05:12.088Z,17.00
2023-04-28T04:07:39.181Z,17.00
2023-04-28T04:10:07.574Z,17.00
2023-04-28T04:12:37.414Z,17.00
2023-04-28T04:15:04.877Z,16.90
2023-04-28T04:17:32.444Z,16.90
2023-04-28T04:19:59.455Z,17.00
2023-04-28T04:22:27.221Z,16.90
2023-04-28T04:24:54.146Z,16.90
2023-04-28T04:27:22.269Z,17.00
2023-04-28T04:29:49.229Z,17.00
2023-04-28T04:32:16.224Z,17.00
2023-04-28T04:34:43.233Z,17.00
2023-04-28T04:37:11.128Z,17.00
2023-04-28T04:39:45.176Z,17.10
2023-04-28T04:42:24.252Z,17.10
2023-04-28T04:45:09.336Z,17.10
2023-04-28T04:47:36.997Z,17.10
2023-04-28T04:50:04.101Z,17.10
2023-04-28T04:52:31.268Z,17.10
2023-04-28T04:54:59.330Z,17.00
2023-04-28T04:57:26.410Z,17.00
2023-04-28T05:00:12.705Z,17.00
2023-04-28T05:02:42.871Z,17.10
2023-04-28T05:05:20.619Z,17.10
2023-04-28T05:08:05.985Z,17.10
2023-04-28T05:10:33.494Z,17.20
2023-04-28T05:13:02.385Z,17.20
2023-04-28T05:15:29.595Z,17.20
2023-04-28T05:18:28.978Z,17.30
2023-04-28T05:20:56.481Z,17.30
2023-04-28T05:23:25.126Z,17.40
2023-04-28T05:25:52.213Z,17.40
2023-04-28T05:28:21.886Z,17.50
2023-04-28T05:30:50.105Z,17.50
2023-04-28T05:33:17.398Z,17.50
2023-04-28T05:35:44.386Z,17.50
2023-04-28T05:38:11.451Z,17.60
2023-04-28T05:40:38.534Z,17.60
2023-04-28T05:43:05.760Z,17.60
2023-04-28T05:45:33.233Z,17.60
2023-04-28T05:48:00.252Z,17.50
2023-04-28T05:50:27.882Z,17.40
2023-04-28T05:52:54.829Z,17.40
2023-04-28T05:55:22.099Z,17.50
2023-04-28T05:57:53.141Z,17.60
2023-04-28T06:00:22.242Z,17.70
2023-04-28T06:02:53.687Z,17.70
2023-04-28T06:05:21.989Z,17.70
2023-04-28T06:07:52.437Z,17.70
2023-04-28T06:10:21.704Z,17.70
2023-04-28T06:12:48.649Z,17.70
2023-04-28T06:15:16.203Z,17.80
2023-04-28T14:00:05.272Z,18.80
2023-04-28T14:02:34.565Z,18.80
2023-04-28T14:05:01.575Z,18.70
2023-04-28T14:07:28.588Z,18.70
2023-04-28T14:09:55.947Z,18.70
2023-04-28T14:12:22.841Z,18.70
2023-04-28T14:14:50.080Z,18.70
2023-04-28T14:17:17.261Z,18.70
2023-04-28T14:19:45.577Z,18.70
2023-04-28T14:22:12.596Z,18.70
2023-04-28T14:24:39.742Z,18.70
2023-04-28T14:27:07.450Z,18.70
2023-04-28T14:29:34.455Z,18.80
2023-04-28T14:32:01.579Z,18.80
2023-04-28T14:34:28.784Z,18.90
2023-04-28T14:36:56.806Z,18.90
2023-04-28T14:39:23.795Z,18.90
2023-04-28T14:41:50.816Z,18.90
2023-04-28T14:44:17.819Z,18.90
2023-04-28T14:46:44.872Z,18.90
2023-04-28T14:49:12.218Z,18.90
2023-04-28T14:51:39.222Z,18.90
2023-04-28T14:54:06.261Z,18.90
2023-04-28T14:56:33.966Z,18.90
2023-04-28T14:59:01.125Z,18.90
2023-04-28T15:01:28.205Z,18.90
2023-04-28T15:03:55.387Z,19.00
2023-04-28T15:06:22.816Z,19.00
2023-04-28T15:08:49.708Z,19.00
2023-04-28T15:11:16.814Z,19.00
2023-04-28T15:13:43.706Z,19.00
2023-04-28T15:16:10.991Z,19.00
2023-04-28T15:18:38.423Z,19.00
2023-04-28T15:21:06.321Z,19.00
2023-04-28T15:23:33.248Z,18.90
2023-04-28T15:26:00.544Z,18.90
2023-04-28T15:28:28.492Z,18.90
2023-04-28T15:30:55.564Z,18.90
2023-04-28T15:33:22.736Z,19.00
2023-04-28T15:35:50.078Z,18.90
2023-04-28T15:38:17.693Z,19.00
2023-04-28T15:40:46.021Z,19.00
2023-04-28T15:43:13.388Z,19.00
2023-04-28T15:45:40.542Z,18.90
2023-04-28T15:48:07.717Z,18.90
2023-04-28T15:50:37.323Z,19.00
2023-04-28T15:53:04.403Z,19.00
2023-04-28T15:55:31.456Z,19.00
2023-04-28T15:58:00.819Z,19.00
2023-04-28T16:00:28.029Z,19.00
2023-04-28T16:02:55.121Z,18.90
2023-04-28T16:05:22.265Z,18.80
2023-04-28T16:07:49.948Z,18.90
2023-04-28T16:10:17.301Z,18.90
2023-04-28T16:12:44.290Z,19.00
2023-04-28T16:15:13.178Z,18.90
2023-04-28T16:17:41.298Z,18.90
2023-04-28T16:20:09.685Z,18.90
2023-04-28T16:22:37.967Z,18.90
2023-04-28T16:25:06.677Z,18.90
2023-04-28T16:27:35.211Z,18.90
2023-04-28T16:30:03.477Z,19.00
2023-04-28T16:32:30.761Z,19.00
2023-04-28T16:34:58.595Z,19.00
2023-04-28T16:37:26.146Z,19.00
2023-04-28T16:39:53.151Z,19.00
2023-04-28T16:42:23.033Z,19.00
2023-04-28T16:44:52.457Z,19.00
2023-04-28T16:47:20.620Z,19.00
2023-04-28T16:49:48.056Z,19.00
2023-04-28T16:52:15.253Z,19.00
2023-04-28T16:54:42.416Z,19.00
2023-04-28T16:57:09.374Z,18.90
2023-04-28T16:59:36.553Z,19.00
2023-04-28T17:02:03.925Z,19.00
2023-04-28T17:04:31.434Z,18.90
2023-04-28T17:06:58.879Z,18.90
2023-04-28T17:09:27.482Z,18.90
2023-04-28T17:11:55.407Z,18.90
2023-04-28T17:14:22.587Z,18.90
2023-04-28T17:16:49.710Z,18.80
2023-04-28T17:19:16.909Z,18.80
2023-04-28T17:21:43.944Z,18.80
2023-04-28T17:24:10.906Z,18.80
2023-04-28T17:26:38.113Z,18.80
2023-04-28T17:29:05.281Z,18.90
2023-04-28T17:31:32.465Z,18.80
2023-04-28T17:34:00.302Z,18.80
2023-04-28T17:36:28.598Z,18.80
2023-04-28T17:38:56.171Z,18.80
2023-04-28T17:41:23.533Z,18.70
2023-04-28T17:43:53.828Z,18.70
2023-04-28T17:46:21.854Z,18.60
2023-04-28T17:48:49.143Z,18.60
2023-04-28T17:51:16.050Z,18.70
2023-04-28T17:53:43.254Z,18.70
2023-04-28T17:56:10.944Z,18.70
2023-04-28T17:58:37.840Z,18.60
2023-04-28T18:01:06.691Z,18.70
2023-04-28T18:03:38.596Z,18.60
2023-04-28T18:06:07.511Z,18.70
2023-04-28T18:08:35.484Z,18.70
2023-04-28T18:11:03.508Z,18.70
2023-04-28T18:13:30.480Z,18.60
2023-04-28T18:15:57.714Z,18.60
2023-04-28T18:18:25.111Z,18.60
2023-04-28T18:20:58.492Z,18.60
2023-04-28T18:23:26.656Z,18.60
2023-04-28T18:25:54.051Z,18.60
2023-04-28T18:28:21.268Z,18.60
2023-04-28T18:30:48.138Z,18.60
2023-04-28T18:33:15.132Z,18.50
2023-04-28T18:35:42.055Z,18.50
2023-04-28T18:38:09.071Z,18.50
2023-04-28T18:40:40.039Z,18.50
2023-04-28T18:43:08.586Z,18.50
2023-04-28T18:45:39.089Z,18.50
2023-04-28T18:48:07.485Z,18.50
2023-04-28T18:50:34.829Z,18.50
2023-04-28T18:53:02.279Z,18.50
2023-04-28T18:55:29.262Z,18.50
2023-04-28T18:57:56.522Z,18.50
2023-04-28T19:00:23.716Z,18.50
2023-04-28T19:02:51.020Z,18.50
2023-04-28T19:05:18.110Z,18.50
2023-04-28T19:07:45.123Z,18.60
2023-04-28T19:10:12.881Z,18.50
2023-04-28T19:12:39.945Z,18.50
2023-04-28T19:15:07.355Z,18.50
2023-04-28T19:17:34.326Z,18.50
2023-04-28T19:20:01.352Z,18.50
2023-04-28T19:22:29.173Z,18.50
2023-04-28T19:24:56.110Z,18.50
2023-04-28T19:27:23.205Z,18.50
2023-04-28T19:29:50.386Z,18.50
2023-04-28T19:32:17.521Z,18.50
2023-04-28T19:34:44.399Z,18.50
2023-04-28T19:37:11.588Z,18.50
2023-04-28T19:39:38.751Z,18.50
2023-04-28T19:42:05.782Z,18.40
2023-04-28T19:44:33.672Z,18.50
2023-04-28T19:47:04.201Z,18.50
2023-04-28T19:49:31.555Z,18.40
2023-04-28T19:51:58.527Z,18.40
2023-04-28T19:54:26.121Z,18.40
2023-04-28T19:56:56.050Z,18.40
2023-04-28T19:59:23.261Z,18.30
2023-04-28T20:01:50.619Z,18.40
2023-04-28T20:04:18.369Z,18.40
2023-04-28T20:06:45.673Z,18.40
2023-04-28T20:09:12.560Z,18.40
2023-04-28T20:11:40.391Z,18.40
2023-04-28T20:14:07.468Z,18.40
2023-04-28T20:16:34.523Z,18.40
2023-04-28T20:19:01.675Z,18.40
2023-04-28T20:21:28.679Z,18.40
2023-04-28T20:23:55.598Z,18.40
2023-04-28T20:26:22.528Z,18.40
2023-04-28T20:28:50.570Z,18.30
2023-04-28T20:31:17.687Z,18.40
2023-04-28T20:33:44.601Z,18.30
2023-04-28T20:36:13.173Z,18.30
2023-04-28T20:38:40.271Z,18.30
2023-04-28T20:41:07.730Z,18.20
2023-04-28T20:43:34.716Z,18.20
2023-04-28T20:46:01.749Z,18.20
2023-04-28T20:48:30.003Z,18.20
2023-04-28T20:50:57.814Z,18.20
2023-04-28T20:53:24.754Z,18.20
2023-04-28T20:55:52.045Z,18.20
2023-04-28T20:58:19.080Z,18.20
2023-04-28T21:00:46.065Z,18.20
2023-04-28T21:03:16.373Z,18.20
2023-04-28T21:05:45.699Z,18.20
2023-04-28T21:08:13.368Z,18.10
2023-04-28T21:10:40.841Z,18.10
2023-04-28T21:13:09.579Z,18.10
2023-04-28T21:15:37.976Z,18.10
2023-04-28T21:18:05.624Z,18.00
2023-04-28T21:20:32.630Z,18.00
2023-04-28T21:22:59.664Z,18.00
2023-04-28T21:25:26.559Z,18.00
2023-04-28T21:27:53.570Z,18.00
2023-04-28T21:30:21.956Z,17.90
2023-04-28T21:32:48.977Z,17.90
2023-04-28T21:35:18.903Z,17.90
2023-04-28T21:37:46.482Z,17.90
2023-04-28T21:40:14.017Z,17.90
2023-04-28T21:42:41.092Z,17.80
2023-04-28T21:45:09.563Z,17.80
2023-04-28T21:47:36.568Z,17.80
2023-04-28T21:50:03.800Z,17.80
2023-04-28T21:52:31.238Z,17.70
2023-04-28T21:54:59.129Z,17.80
2023-04-28T21:57:26.234Z,17.80
2023-04-28T21:59:53.308Z,17.80
2023-04-28T22:02:20.430Z,17.80
2023-04-28T22:04:47.580Z,17.90
2023-04-28T22:07:14.523Z,17.90
2023-04-28T22:09:41.438Z,17.80
2023-04-28T22:12:08.405Z,17.80
2023-04-28T22:14:41.042Z,17.80
2023-04-28T22:17:08.745Z,17.80
2023-04-28T22:19:35.805Z,17.90
2023-04-28T22:22:02.779Z,17.90
2023-04-28T22:24:29.677Z,17.80
2023-04-28T22:26:57.986Z,17.80
2023-04-28T22:29:25.701Z,17.80
2023-04-28T22:31:53.524Z,17.80
2023-04-28T22:34:21.418Z,17.90
2023-04-28T22:36:48.436Z,17.80
2023-04-28T22:39:15.595Z,17.80
2023-04-28T22:41:42.560Z,17.80
2023-04-28T22:44:10.078Z,17.80
2023-04-28T22:46:37.058Z,17.80
2023-04-28T22:49:04.968Z,17.80
2023-04-28T22:51:31.999Z,17.70
2023-04-28T22:53:58.933Z,17.80
2023-04-28T22:56:26.044Z,17.80
2023-04-28T22:58:53.096Z,17.70
2023-04-28T23:01:20.107Z,17.70
2023-04-28T23:03:50.714Z,17.70
2023-04-28T23:06:17.869Z,17.70
2023-04-28T23:08:44.880Z,17.80
2023-04-28T23:11:12.010Z,17.70
2023-04-28T23:13:39.297Z,17.70
2023-04-28T23:16:06.621Z,17.70
2023-04-28T23:18:33.692Z,17.70
2023-04-28T23:21:00.773Z,17.60
2023-04-28T23:23:27.902Z,17.60
2023-04-28T23:25:56.681Z,17.60
2023-04-28T23:28:23.674Z,17.60
2023-04-28T23:30:50.698Z,17.60
2023-04-28T23:33:17.758Z,17.60
2023-04-28T23:35:44.644Z,17.60
2023-04-28T23:38:12.437Z,17.70
2023-04-28T23:40:39.410Z,17.60
2023-04-28T23:43:06.440Z,17.60
2023-04-28T23:45:33.438Z,17.70
2023-04-28T23:48:00.423Z,17.70
2023-04-28T23:50:27.844Z,17.70
2023-04-28T23:52:54.806Z,17.60
2023-04-28T23:55:21.738Z,17.60
2023-04-28T23:57:48.684Z,17.50
